BIRK/RKV METAR and TAF weather

Enter ICAO airport designator
Station Type Date Time Source
BIRK METAR 2022/06/27 08:00 UTC NOAA

BIRK 270800Z VRB02KT CAVOK 08/04 Q1002


Station Type Date Time Source
BIRK Decoded METAR 2022/06/27 08:00 UTC NOAA

Reykjavik, Iceland (BIRK) 64-08N 021-54W 61M
Jun 27, 2022 - 04:00 AM EDT / 2022.06.27 0800 UTC
Wind: Variable at 2 MPH (2 KT):0
Visibility: greater than 7 mile(s):0
Temperature: 46 F (8 C)
Dew Point: 39 F (4 C)
Relative Humidity: 75%
Pressure (altimeter): 29.59 in. Hg (1002 hPa)
ob: BIRK 270800Z VRB02KT CAVOK 08/04 Q1002
cycle: 8

Station Type Date Time Source
BIRK TAF 2022/06/27 09:54 UTC NOAA

TAF BIRK 270746Z 2709/2809 09004KT 9999 FEW024 TX11/2712Z TN08/2709Z
BECMG 2712/2714 32010KT
TEMPO 2714/2720 4500 SHRA BKN018CB
BECMG 2719/2721 14004KT

Example: see airport list